METAR Data
IDs: Format: Raw Decoded Include TAF

Data at: 2344 UTC 18 Oct 2019

METAR for:KHLX (Hillsville/Twin Cnty, VA, US)
Text:KHLX 182335Z AUTO 14003KT 10SM CLR 11/00 A3004 RMK AO2 T01141002
Temperature: 11.4°C ( 53°F)
Dewpoint: -0.2°C ( 32°F) [RH = 45%]
Pressure (altimeter):30.04 inches Hg (1017.4 mb)
Winds:from the SE (140 degrees) at 3 MPH (3 knots; 1.5 m/s)
Visibility:10 or more sm (16+ km)
Ceiling:at least 12,000 feet AGL
Clouds:sky clear below 12,000 feet AGL
QC Flag:automated observation with no human augmentation